Terminal Aerodrome Forecast
Issued by NWS Charleston, SC

Home | Current Version | Previous Version | Text Only | Print | Product List | Glossary On
Versions: 1 2 3 4 5 6 7 8 9 10 11 12 13 14 15 16 17
000
FTUS42 KCHS 231600 AAB
TAFCHS
TAF AMD
KCHS 231622Z 2316/2412 02010KT P6SM -RA SCT015 OVC035
      TEMPO 2316/2318 5SM -RA SCT007 BKN015
     FM231800 04011G17KT P6SM VCSH SCT012 OVC025
     FM240200 02013G19KT P6SM VCSH SCT015 BKN050=

USA.gov is the U.S. government's official web portal to all federal, state and local government web resources and services.